createdAt,value
2023-01-05T00:00:35.409Z,10.29
2023-01-05T00:04:40.004Z,10.42
2023-01-05T00:08:46.400Z,10.45
2023-01-05T00:13:06.883Z,10.51
2023-01-05T00:17:31.586Z,10.44
2023-01-05T00:21:55.487Z,10.49
2023-01-05T00:25:58.484Z,10.48
2023-01-05T00:30:02.638Z,10.34
2023-01-05T00:34:07.611Z,10.49
2023-01-05T00:38:11.404Z,10.51
2023-01-05T00:42:14.355Z,10.47
2023-01-05T00:46:17.758Z,10.42
2023-01-05T00:50:24.698Z,10.61
2023-01-05T00:54:28.471Z,10.54
2023-01-05T00:58:31.337Z,10.55
2023-01-05T01:02:34.855Z,10.60
2023-01-05T01:06:39.085Z,10.62
2023-01-05T01:10:42.222Z,10.54
2023-01-05T01:14:48.992Z,10.45
2023-01-05T01:18:53.740Z,10.50
2023-01-05T01:23:00.503Z,10.45
2023-01-05T01:27:04.084Z,10.47
2023-01-05T01:31:08.687Z,10.33
2023-01-05T01:35:12.246Z,10.48
2023-01-05T01:39:17.710Z,10.56
2023-01-05T01:43:40.131Z,10.48
2023-01-05T01:47:46.274Z,10.41
2023-01-05T01:51:50.657Z,10.18
2023-01-05T01:55:56.336Z,10.11
2023-01-05T02:00:02.177Z,10.06
2023-01-05T02:04:06.680Z,10.07
2023-01-05T02:08:26.044Z,10.03
2023-01-05T02:12:39.640Z,10.00
2023-01-05T02:16:50.469Z,10.01
2023-01-05T02:21:17.510Z,9.80
2023-01-05T02:25:48.134Z,9.78
2023-01-05T02:30:42.824Z,9.71
2023-01-05T02:34:54.590Z,9.64
2023-01-05T02:39:02.601Z,9.62
2023-01-05T02:43:07.099Z,9.40
2023-01-05T02:47:37.707Z,9.48
2023-01-05T02:51:46.660Z,9.37
2023-01-05T02:55:53.325Z,8.99
2023-01-05T02:59:57.335Z,9.29
2023-01-05T03:04:05.171Z,9.19
2023-01-05T03:08:32.100Z,9.10
2023-01-05T03:12:54.545Z,9.10
2023-01-05T03:16:58.687Z,9.01
2023-01-05T03:21:03.361Z,8.96
2023-01-05T03:25:27.920Z,8.83
2023-01-05T03:29:51.297Z,8.89
2023-01-05T03:34:16.445Z,8.89
2023-01-05T03:38:25.066Z,8.96
2023-01-05T03:42:39.052Z,8.51
2023-01-05T03:46:43.281Z,8.67
2023-01-05T03:50:46.834Z,8.74
2023-01-05T03:54:49.958Z,8.79
2023-01-05T03:58:54.895Z,8.64
2023-01-05T04:02:58.556Z,8.61
2023-01-05T04:07:02.386Z,8.61
2023-01-05T04:11:13.384Z,8.67
2023-01-05T04:15:18.918Z,8.66
2023-01-05T04:19:22.495Z,8.66
2023-01-05T04:23:25.975Z,8.76
2023-01-05T04:27:29.486Z,8.66
2023-01-05T04:31:34.417Z,8.54
2023-01-05T04:35:37.825Z,8.74
2023-01-05T04:39:41.122Z,8.66
2023-01-05T04:43:44.401Z,8.79
2023-01-05T04:47:48.544Z,8.76
2023-01-05T04:51:51.439Z,8.64
2023-01-05T04:55:54.593Z,8.85
2023-01-05T04:59:57.738Z,8.68
2023-01-05T05:04:02.628Z,8.64
2023-01-05T05:08:07.476Z,8.75
2023-01-05T05:12:13.327Z,9.01
2023-01-05T05:16:16.421Z,8.81
2023-01-05T05:20:24.447Z,8.86
2023-01-05T05:24:30.898Z,8.93
2023-01-05T05:28:38.234Z,9.00
2023-01-05T05:32:44.472Z,8.94
2023-01-05T05:36:50.921Z,8.95
2023-01-05T05:40:54.384Z,8.83
2023-01-05T05:45:03.503Z,8.93
2023-01-05T05:49:13.196Z,8.79
2023-01-05T05:53:17.978Z,8.91
2023-01-05T05:57:21.275Z,8.92
2023-01-05T06:01:24.919Z,8.94
2023-01-05T06:05:28.128Z,8.81
2023-01-05T06:09:32.672Z,8.91
2023-01-05T06:13:36.244Z,8.91
2023-01-05T06:17:39.842Z,8.87
2023-01-05T06:21:43.716Z,8.74
2023-01-05T06:25:49.545Z,8.74
2023-01-05T06:29:52.758Z,8.82
2023-01-05T06:33:56.176Z,8.78
2023-01-05T06:37:59.097Z,8.66
2023-01-05T06:42:05.798Z,8.79
2023-01-05T06:46:09.053Z,8.73
2023-01-05T06:50:12.273Z,8.72
2023-01-05T06:54:15.479Z,8.42
2023-01-05T06:58:19.884Z,8.64
2023-01-05T07:02:22.949Z,8.79
2023-01-05T07:06:26.187Z,8.77
2023-01-05T07:10:29.633Z,8.69
2023-01-05T07:14:34.146Z,8.60
2023-01-05T07:18:37.468Z,8.75
2023-01-05T07:22:40.970Z,8.72
2023-01-05T07:26:43.836Z,8.68
2023-01-05T07:30:53.435Z,8.64
2023-01-05T07:34:57.803Z,8.68
2023-01-05T07:39:01.043Z,8.61
2023-01-05T07:43:04.649Z,8.72
2023-01-05T07:47:09.563Z,8.71
2023-01-05T07:51:13.440Z,8.77
2023-01-05T07:55:16.385Z,8.77
2023-01-05T07:59:22.440Z,8.75
2023-01-05T08:03:27.200Z,8.74
2023-01-05T08:07:30.057Z,8.76
2023-01-05T08:11:33.562Z,8.80
2023-01-05T08:15:37.105Z,8.80
2023-01-05T08:19:42.543Z,8.64
2023-01-05T08:23:46.229Z,8.82
2023-01-05T08:27:49.277Z,8.77
2023-01-05T08:31:52.286Z,8.80
2023-01-05T08:35:56.655Z,8.97
2023-01-05T08:40:00.150Z,8.92
2023-01-05T08:44:04.807Z,8.98
2023-01-05T08:48:09.425Z,9.09
2023-01-05T08:52:15.734Z,9.05
2023-01-05T08:56:19.328Z,9.00
2023-01-05T09:00:22.982Z,8.97
2023-01-05T09:04:27.649Z,8.96
2023-01-05T09:08:32.516Z,9.03
2023-01-05T09:12:36.203Z,8.89
2023-01-05T09:21:02.260Z,9.16
2023-01-05T09:25:07.329Z,9.19
2023-01-05T09:29:12.405Z,9.21
2023-01-05T09:33:15.329Z,9.39
2023-01-05T09:37:18.266Z,9.46
2023-01-05T09:41:26.084Z,9.60
2023-01-05T09:45:29.336Z,9.57
2023-01-05T09:49:32.978Z,9.67
2023-01-05T09:53:36.140Z,9.54
2023-01-05T09:57:41.671Z,9.49
2023-01-05T10:01:55.405Z,9.60
2023-01-05T10:06:01.221Z,9.53
2023-01-05T10:10:15.083Z,9.60
2023-01-05T10:14:41.586Z,9.59
2023-01-05T10:18:46.537Z,9.16
2023-01-05T10:22:58.791Z,9.62
2023-01-05T10:27:28.690Z,9.70
2023-01-05T10:31:46.729Z,9.67
2023-01-05T10:36:02.353Z,9.68
2023-01-05T10:40:32.480Z,9.87
2023-01-05T10:45:07.676Z,10.07
2023-01-05T10:49:24.813Z,10.09
2023-01-05T10:53:33.297Z,10.07
2023-01-05T10:57:42.053Z,10.05
2023-01-05T11:01:53.290Z,10.14
2023-01-05T11:06:07.754Z,10.18
2023-01-05T11:10:30.344Z,10.00
2023-01-05T11:14:42.609Z,10.03
2023-01-05T11:19:01.173Z,9.97
2023-01-05T11:23:37.018Z,9.91
2023-01-05T11:27:42.632Z,9.96
2023-01-05T11:31:56.071Z,9.93
2023-01-05T11:36:02.444Z,9.99
2023-01-05T11:40:30.690Z,9.95
2023-01-05T11:44:38.480Z,9.87
2023-01-05T11:48:54.273Z,9.94
2023-01-05T11:53:01.083Z,9.96
2023-01-05T11:57:19.443Z,9.94
2023-01-05T12:01:49.543Z,9.91
2023-01-05T12:05:58.762Z,9.96
2023-01-05T12:10:23.655Z,9.97
2023-01-05T12:14:49.958Z,9.97
2023-01-05T12:19:15.142Z,10.10
2023-01-05T12:23:57.577Z,9.99
2023-01-05T12:29:50.558Z,10.07
2023-01-05T12:34:09.882Z,10.13
2023-01-05T12:38:18.182Z,10.26
2023-01-05T12:42:42.913Z,10.29
2023-01-05T12:46:56.018Z,10.28
2023-01-05T12:51:10.243Z,10.39
2023-01-05T12:55:20.348Z,10.40
2023-01-05T12:59:28.759Z,10.40
2023-01-05T13:04:03.163Z,10.29
2023-01-05T13:08:34.582Z,10.41
2023-01-05T13:12:44.017Z,10.28
2023-01-05T13:16:58.720Z,10.21
2023-01-05T13:21:14.573Z,10.12
2023-01-05T13:25:34.952Z,10.07
2023-01-05T13:29:49.229Z,10.05
2023-01-05T13:34:36.267Z,10.02
2023-01-05T13:39:05.361Z,10.09
2023-01-05T13:43:44.450Z,10.01
2023-01-05T13:48:00.974Z,9.96
2023-01-05T13:56:42.461Z,9.99
2023-01-05T14:00:53.124Z,10.06
2023-01-05T14:04:57.962Z,9.96
2023-01-05T14:09:07.150Z,10.05
2023-01-05T14:13:57.738Z,9.98
2023-01-05T14:18:08.557Z,9.95
2023-01-05T14:22:37.812Z,9.99
2023-01-05T14:27:22.331Z,9.98
2023-01-05T14:31:45.110Z,9.98
2023-01-05T14:35:51.241Z,10.00
2023-01-05T14:40:04.095Z,9.98
2023-01-05T14:44:35.013Z,10.03
2023-01-05T14:48:43.993Z,10.10
2023-01-05T14:53:12.200Z,10.02
2023-01-05T14:57:41.939Z,9.96
2023-01-05T15:02:08.122Z,9.95
2023-01-05T15:06:18.150Z,9.79
2023-01-05T15:10:45.772Z,9.86
2023-01-05T15:15:30.812Z,9.83
2023-01-05T15:20:09.383Z,9.79
2023-01-05T15:24:56.875Z,9.74
2023-01-05T15:29:20.272Z,9.59
2023-01-05T15:33:35.453Z,9.39
2023-01-05T15:37:44.262Z,8.95
2023-01-05T15:41:48.300Z,9.44
2023-01-05T15:45:56.831Z,9.27
2023-01-05T15:50:03.939Z,9.33
2023-01-05T15:54:23.360Z,9.31
2023-01-05T15:58:31.289Z,9.03
2023-01-05T16:02:36.334Z,9.29
2023-01-05T16:06:41.066Z,9.12
2023-01-05T16:10:51.938Z,9.24
2023-01-05T16:15:00.932Z,9.22
2023-01-05T16:19:13.085Z,9.22
2023-01-05T16:23:20.135Z,9.30
2023-01-05T16:27:25.258Z,9.15
2023-01-05T16:31:34.811Z,9.20
2023-01-05T16:35:51.686Z,9.21
2023-01-05T16:40:08.562Z,9.19
2023-01-05T16:44:15.566Z,9.26
2023-01-05T16:48:53.545Z,9.14
2023-01-05T16:53:13.011Z,9.10
2023-01-05T16:57:33.959Z,9.10
2023-01-05T17:01:48.202Z,9.18
2023-01-05T17:05:53.603Z,9.15
2023-01-05T17:14:25.864Z,9.14
2023-01-05T17:18:31.399Z,9.08
2023-01-05T17:22:35.872Z,8.97
2023-01-05T17:26:41.937Z,8.98
2023-01-05T17:30:47.853Z,9.05
2023-01-05T17:34:53.099Z,9.13
2023-01-05T17:38:56.455Z,9.19
2023-01-05T17:43:09.780Z,9.18
2023-01-05T17:47:14.285Z,9.08
2023-01-05T17:51:21.539Z,9.08
2023-01-05T17:55:25.578Z,9.02
2023-01-05T17:59:29.874Z,8.75
2023-01-05T18:03:33.845Z,8.98
2023-01-05T18:07:39.660Z,9.05
2023-01-05T18:11:46.456Z,9.12
2023-01-05T18:15:53.622Z,9.04
2023-01-05T18:19:56.993Z,8.92
2023-01-05T18:24:01.847Z,9.02
2023-01-05T18:28:08.950Z,8.97
2023-01-05T18:32:13.207Z,8.97
2023-01-05T18:36:19.842Z,8.98
2023-01-05T18:40:24.547Z,9.09
2023-01-05T18:44:31.330Z,9.18
2023-01-05T18:48:34.931Z,9.26
2023-01-05T18:52:38.577Z,9.12
2023-01-05T18:56:43.554Z,9.28
2023-01-05T19:00:47.776Z,9.27
2023-01-05T19:04:51.659Z,9.36
2023-01-05T19:08:55.208Z,9.38
2023-01-05T19:13:01.271Z,9.38
2023-01-05T19:17:09.856Z,9.43
2023-01-05T19:21:13.673Z,9.37
2023-01-05T19:25:22.923Z,9.46
2023-01-05T19:29:30.035Z,9.46
2023-01-05T19:33:33.827Z,9.50
2023-01-05T19:37:42.689Z,9.51
2023-01-05T19:41:50.527Z,9.43
2023-01-05T19:45:59.250Z,9.55
2023-01-05T19:50:02.297Z,9.56
2023-01-05T19:54:12.659Z,9.59
2023-01-05T19:58:15.468Z,9.61
2023-01-05T20:02:26.930Z,9.59
2023-01-05T20:06:38.281Z,9.52
2023-01-05T20:10:42.284Z,9.66
2023-01-05T20:14:46.326Z,9.61
2023-01-05T20:18:50.865Z,9.67
2023-01-05T20:22:54.323Z,9.73
2023-01-05T20:27:02.533Z,9.75
2023-01-05T20:31:07.067Z,9.69
2023-01-05T20:35:14.469Z,9.57
2023-01-05T20:39:20.217Z,9.78
2023-01-05T20:43:24.613Z,9.76
2023-01-05T20:47:29.926Z,9.78
2023-01-05T20:51:34.593Z,9.83
2023-01-05T20:55:40.432Z,9.85
2023-01-05T20:59:44.881Z,9.86
2023-01-05T21:03:50.483Z,9.85
2023-01-05T21:07:59.837Z,9.80
2023-01-05T21:12:03.436Z,9.85
2023-01-05T21:16:08.022Z,9.88
2023-01-05T21:20:11.202Z,9.80
2023-01-05T21:24:22.723Z,9.89
2023-01-05T21:28:27.690Z,9.88
2023-01-05T21:32:34.401Z,9.85
2023-01-05T21:36:38.813Z,9.88
2023-01-05T21:40:47.468Z,9.81
2023-01-05T21:44:50.888Z,9.88
2023-01-05T21:48:53.820Z,9.98
2023-01-05T21:53:14.511Z,9.95
2023-01-05T21:57:21.512Z,9.91
2023-01-05T22:01:31.929Z,9.94
2023-01-05T22:05:40.682Z,9.95
2023-01-05T22:09:44.630Z,9.93
2023-01-05T22:13:53.881Z,9.98
2023-01-05T22:17:57.127Z,9.99
2023-01-05T22:22:16.610Z,9.98
2023-01-05T22:26:23.739Z,9.87
2023-01-05T22:30:28.361Z,9.98
2023-01-05T22:34:33.003Z,10.01
2023-01-05T22:38:38.638Z,10.00
2023-01-05T22:42:48.219Z,9.98
2023-01-05T22:46:52.909Z,10.00
2023-01-05T22:50:57.218Z,9.98
2023-01-05T22:55:04.512Z,10.00
2023-01-05T22:59:08.722Z,10.06
2023-01-05T23:03:14.099Z,10.05
2023-01-05T23:07:27.265Z,10.07
2023-01-05T23:11:34.709Z,10.01
2023-01-05T23:15:44.065Z,10.00
2023-01-05T23:19:49.439Z,9.97
2023-01-05T23:23:53.237Z,9.96
2023-01-05T23:28:05.178Z,9.95
2023-01-05T23:32:14.104Z,9.96
2023-01-05T23:36:29.341Z,9.77
2023-01-05T23:40:33.045Z,9.84
2023-01-05T23:44:36.403Z,9.78
2023-01-05T23:48:41.194Z,9.69
2023-01-05T23:52:50.078Z,9.69
2023-01-05T23:56:53.752Z,9.69
